Time;durP1;ratioP1;P1;durP2;ratioP2;P2;SDS_P1;SDS_P2;PMS_P1;PMS_P2;Temp;Humidity;BMP_temperature;BMP_pressure;BME280_temperature;BME280_humidity;BME280_pressure;Samples;Min_cycle;Max_cycle;Signal;HPM_P1;HPM_P2
2023/04/03 00:00:38;;;;;;;2.30;1.93;;;5.60;99.90;;;;;;5054439;28;20209;-65
2023/04/03 00:03:05;;;;;;;3.10;2.10;;;5.60;99.90;;;;;;5054972;28;20205;-65
2023/04/03 00:05:31;;;;;;;3.87;2.10;;;5.50;99.90;;;;;;5054679;28;20236;-67
2023/04/03 00:08:01;;;;;;;2.03;1.83;;;5.50;99.90;;;;;;5054531;28;20225;-66
2023/04/03 00:10:28;;;;;;;3.07;2.20;;;5.50;99.90;;;;;;5054169;28;20681;-65
2023/04/03 00:12:55;;;;;;;4.17;2.03;;;5.40;99.90;;;;;;5054649;28;20271;-66
2023/04/03 00:15:22;;;;;;;4.33;2.20;;;5.50;99.90;;;;;;5054575;28;20212;-66
2023/04/03 00:17:48;;;;;;;2.90;2.50;;;5.40;99.90;;;;;;5054586;28;20228;-66
2023/04/03 00:20:15;;;;;;;5.47;2.37;;;5.40;99.90;;;;;;5054312;28;20239;-66
2023/04/03 00:22:42;;;;;;;4.83;2.30;;;5.20;99.90;;;;;;5054564;28;20213;-67
2023/04/03 00:25:10;;;;;;;1.97;1.80;;;5.20;99.90;;;;;;5054741;28;20252;-66
2023/04/03 00:27:37;;;;;;;4.43;2.30;;;5.20;99.90;;;;;;5059690;28;20765;-66
2023/04/03 00:30:05;;;;;;;2.73;2.20;;;5.20;99.90;;;;;;5058230;28;20206;-66
2023/04/03 00:32:32;;;;;;;2.53;1.77;;;5.10;99.90;;;;;;5056421;28;20210;-66
2023/04/03 00:34:59;;;;;;;3.60;2.27;;;5.00;99.90;;;;;;5056905;28;20309;-65
2023/04/03 00:37:26;;;;;;;3.50;2.10;;;4.90;99.90;;;;;;5055967;28;20229;-65
2023/04/03 00:39:52;;;;;;;3.47;2.10;;;4.90;99.90;;;;;;5055307;28;20213;-66
2023/04/03 00:42:21;;;;;;;3.60;2.40;;;4.70;99.90;;;;;;5054770;28;20205;-66
2023/04/03 00:45:40;;;;;;;2.93;1.93;;;4.60;99.90;;;;;;5057768;28;20230;-66
2023/04/03 00:48:10;;;;;;;2.67;1.70;;;4.40;99.90;;;;;;4992813;28;20257;-66
2023/04/03 00:50:40;;;;;;;1.97;1.77;;;4.20;99.90;;;;;;4992997;28;20237;-65
2023/04/03 00:53:09;;;;;;;3.20;2.10;;;4.20;99.90;;;;;;5023415;28;20208;-66
2023/04/03 00:55:37;;;;;;;2.87;1.90;;;4.10;99.90;;;;;;5054874;28;20263;-65
2023/04/03 00:58:06;;;;;;;4.87;2.33;;;4.00;99.90;;;;;;5055392;28;20225;-65
2023/04/03 01:00:34;;;;;;;6.23;2.27;;;4.00;99.90;;;;;;5056535;28;20232;-66
2023/04/03 01:03:01;;;;;;;3.13;1.90;;;3.90;99.90;;;;;;5055470;28;20212;-66
2023/04/03 01:05:27;;;;;;;3.10;2.20;;;3.90;99.90;;;;;;5054205;28;20225;-65
2023/04/03 01:07:54;;;;;;;3.40;2.17;;;3.80;99.90;;;;;;5055184;28;20221;-65
2023/04/03 01:10:22;;;;;;;2.60;2.17;;;3.70;99.90;;;;;;5054789;28;20237;-65
2023/04/03 01:12:51;;;;;;;3.87;2.30;;;3.70;99.90;;;;;;5054465;28;20213;-66
2023/04/03 01:15:22;;;;;;;3.33;2.30;;;3.60;99.90;;;;;;5055040;28;20236;-66
2023/04/03 01:17:51;;;;;;;2.93;2.30;;;3.60;99.90;;;;;;5055943;28;20237;-66
2023/04/03 01:20:58;;;;;;;2.77;2.23;;;3.60;99.90;;;;;;5068371;28;20209;-66
2023/04/03 01:23:33;;;;;;;2.77;2.30;;;3.60;99.90;;;;;;5068516;28;20248;-67
2023/04/03 01:26:00;;;;;;;2.37;1.83;;;3.60;99.90;;;;;;5068036;28;20232;-66
2023/04/03 01:28:29;;;;;;;2.67;2.03;;;3.50;99.90;;;;;;5114015;22;20643;-57
2023/04/03 01:31:04;;;;;;;3.73;2.10;;;3.50;99.90;;;;;;5092893;28;20200;-58
2023/04/03 01:33:33;;;;;;;2.70;1.90;;;3.50;99.90;;;;;;5093568;28;20207;-57
2023/04/03 01:36:00;;;;;;;5.70;2.50;;;3.60;99.90;;;;;;5093413;28;20204;-58
2023/04/03 01:38:26;;;;;;;2.93;2.30;;;3.70;99.90;;;;;;5093788;28;20230;-57
2023/04/03 01:40:53;;;;;;;2.53;1.93;;;3.70;99.90;;;;;;5093361;28;20204;-57
2023/04/03 01:43:20;;;;;;;3.50;2.00;;;3.80;99.90;;;;;;5093263;28;20208;-57
2023/04/03 01:45:49;;;;;;;3.43;2.40;;;3.90;99.90;;;;;;5093166;28;20698;-57
2023/04/03 01:48:16;;;;;;;3.63;2.10;;;4.00;99.90;;;;;;5092911;28;20243;-58
2023/04/03 01:50:44;;;;;;;3.73;1.93;;;4.10;99.90;;;;;;5093051;28;20566;-57
2023/04/03 01:53:11;;;;;;;3.37;2.00;;;4.20;99.90;;;;;;5093018;28;20208;-57
2023/04/03 01:55:38;;;;;;;3.00;2.10;;;4.30;99.90;;;;;;5092988;28;20204;-57
2023/04/03 01:58:04;;;;;;;3.10;2.13;;;4.50;99.90;;;;;;5092786;28;20233;-57
2023/04/03 02:00:31;;;;;;;4.47;2.30;;;4.60;99.90;;;;;;5092675;28;20204;-57
2023/04/03 02:02:58;;;;;;;4.07;2.40;;;4.70;99.90;;;;;;5093223;28;20219;-58
2023/04/03 02:05:25;;;;;;;2.83;1.90;;;4.90;99.90;;;;;;5092844;28;20260;-58
2023/04/03 02:07:53;;;;;;;4.27;2.10;;;5.00;99.90;;;;;;5093141;28;20232;-58
2023/04/03 02:10:20;;;;;;;2.50;2.03;;;5.10;99.90;;;;;;5093157;28;20203;-57
2023/04/03 02:12:47;;;;;;;2.03;1.80;;;5.20;99.90;;;;;;5093146;28;20204;-58
2023/04/03 02:15:13;;;;;;;3.67;2.30;;;5.20;99.90;;;;;;5093000;28;20608;-57
2023/04/03 02:17:40;;;;;;;2.67;2.07;;;5.10;99.90;;;;;;5095142;28;20275;-57
2023/04/03 02:20:08;;;;;;;2.40;2.10;;;5.10;99.90;;;;;;5096466;28;20208;-57
2023/04/03 02:22:35;;;;;;;2.70;2.10;;;5.20;99.90;;;;;;5097016;28;20204;-58
2023/04/03 02:25:34;;;;;;;3.53;2.40;;;5.20;99.90;;;;;;5096833;28;20230;-57
2023/04/03 02:28:01;;;;;;;3.33;2.30;;;5.20;99.90;;;;;;5097045;28;20243;-57
2023/04/03 02:30:28;;;;;;;2.93;2.00;;;5.10;99.90;;;;;;5096860;28;20686;-58
2023/04/03 02:32:55;;;;;;;2.43;1.90;;;5.20;99.90;;;;;;5096604;28;20682;-58
2023/04/03 02:35:22;;;;;;;2.83;2.10;;;5.20;99.90;;;;;;5096676;28;20324;-58
2023/04/03 02:37:49;;;;;;;2.97;2.10;;;5.10;99.90;;;;;;5096723;28;20239;-58
2023/04/03 02:40:16;;;;;;;2.90;2.00;;;5.10;99.90;;;;;;5096471;28;20211;-57
2023/04/03 02:42:44;;;;;;;4.67;2.27;;;5.20;99.90;;;;;;5096890;28;20449;-58
2023/04/03 02:45:11;;;;;;;2.87;2.10;;;5.20;99.90;;;;;;5096933;28;20231;-57
2023/04/03 02:47:38;;;;;;;2.90;2.13;;;5.30;99.90;;;;;;5096651;28;20230;-57
2023/04/03 02:50:06;;;;;;;2.60;1.83;;;5.40;99.90;;;;;;5096544;28;20668;-58
2023/04/03 02:52:33;;;;;;;2.47;1.97;;;5.40;99.90;;;;;;5097251;28;20216;-58
2023/04/03 02:54:59;;;;;;;3.40;2.00;;;5.50;99.90;;;;;;5096223;28;20679;-58
2023/04/03 02:57:26;;;;;;;2.17;1.70;;;5.50;99.90;;;;;;5096770;28;20219;-58
2023/04/03 02:59:54;;;;;;;2.80;1.80;;;5.50;99.90;;;;;;5096544;28;20240;-57
2023/04/03 03:02:21;;;;;;;3.27;1.90;;;5.40;99.90;;;;;;5096797;28;20205;-58
2023/04/03 03:04:48;;;;;;;4.23;2.07;;;5.40;99.90;;;;;;5096213;28;20224;-58
2023/04/03 03:07:14;;;;;;;2.30;1.90;;;5.30;99.90;;;;;;5096033;28;20228;-58
2023/04/03 03:09:41;;;;;;;2.90;1.90;;;5.40;99.90;;;;;;5095865;28;20208;-58
2023/04/03 03:12:08;;;;;;;3.00;2.23;;;5.40;99.90;;;;;;5096201;28;20204;-58
2023/04/03 03:14:35;;;;;;;2.07;1.80;;;5.40;99.90;;;;;;5095771;28;20703;-58
2023/04/03 03:17:03;;;;;;;2.20;1.97;;;5.40;99.90;;;;;;5096125;28;20319;-59
2023/04/03 03:19:29;;;;;;;2.77;2.30;;;5.50;99.90;;;;;;5096077;28;20230;-58
2023/04/03 03:21:56;;;;;;;2.67;1.70;;;5.60;99.90;;;;;;5095748;28;20291;-58
2023/04/03 03:24:23;;;;;;;2.63;1.90;;;5.70;99.90;;;;;;5095763;28;20553;-58
2023/04/03 03:26:50;;;;;;;1.90;1.80;;;5.70;99.90;;;;;;5095417;28;20240;-58
2023/04/03 03:29:17;;;;;;;2.20;1.90;;;5.80;99.90;;;;;;5094473;28;20566;-58
2023/04/03 03:31:43;;;;;;;3.37;1.90;;;5.70;99.90;;;;;;5095307;28;20200;-59
2023/04/03 03:34:11;;;;;;;3.60;1.87;;;5.70;99.90;;;;;;5095765;28;20239;-58
2023/04/03 03:36:38;;;;;;;2.07;1.70;;;5.60;99.90;;;;;;5095537;28;20224;-58
2023/04/03 03:39:05;;;;;;;3.17;1.80;;;5.60;99.90;;;;;;5095808;28;20207;-58
2023/04/03 03:41:32;;;;;;;2.60;1.90;;;5.60;99.90;;;;;;5095296;28;20204;-58
2023/04/03 03:43:59;;;;;;;3.73;1.90;;;5.60;99.90;;;;;;5095190;28;20282;-58
2023/04/03 03:46:26;;;;;;;2.10;1.63;;;5.50;99.90;;;;;;5095383;28;20223;-59
2023/04/03 03:48:52;;;;;;;2.60;2.10;;;5.50;99.90;;;;;;5095591;28;20200;-58
2023/04/03 03:51:21;;;;;;;2.40;1.77;;;5.50;99.90;;;;;;5095445;28;20214;-59
2023/04/03 03:53:47;;;;;;;2.70;2.10;;;5.50;99.90;;;;;;5096891;28;20208;-58
2023/04/03 03:56:14;;;;;;;3.27;2.17;;;5.40;99.90;;;;;;5096228;28;20287;-58
2023/04/03 03:58:41;;;;;;;1.70;1.60;;;5.50;99.90;;;;;;5095895;28;20216;-58
2023/04/03 04:01:08;;;;;;;4.27;2.10;;;5.60;99.90;;;;;;5096290;28;20201;-58
2023/04/03 04:03:35;;;;;;;4.47;2.33;;;5.60;99.90;;;;;;5096829;28;20634;-59
2023/04/03 04:06:02;;;;;;;4.00;1.90;;;5.50;99.90;;;;;;5096078;28;20231;-58
2023/04/03 04:08:30;;;;;;;2.83;1.80;;;5.40;99.90;;;;;;5096319;28;20231;-58
2023/04/03 04:10:57;;;;;;;2.50;1.73;;;5.40;99.90;;;;;;5095288;28;20211;-58
2023/04/03 04:13:24;;;;;;;1.97;1.63;;;5.50;99.90;;;;;;5094865;28;20208;-58
2023/04/03 04:15:50;;;;;;;3.37;2.00;;;5.50;99.90;;;;;;5094872;28;20235;-58
2023/04/03 04:18:17;;;;;;;1.80;1.70;;;5.50;99.90;;;;;;5095244;28;20251;-58
2023/04/03 04:20:46;;;;;;;2.27;1.70;;;5.50;99.90;;;;;;5094910;28;20295;-58
2023/04/03 04:23:12;;;;;;;2.00;1.57;;;5.50;99.90;;;;;;5095272;28;20577;-58
2023/04/03 04:25:41;;;;;;;3.53;1.80;;;5.50;99.90;;;;;;5095910;28;20235;-58
2023/04/03 04:28:07;;;;;;;3.63;1.70;;;5.90;99.90;;;;;;5095763;28;20238;-58
2023/04/03 04:30:34;;;;;;;2.93;1.90;;;5.70;99.90;;;;;;5095880;28;20208;-59
2023/04/03 04:33:01;;;;;;;3.20;2.00;;;5.80;99.90;;;;;;5096338;28;20204;-58
2023/04/03 04:35:27;;;;;;;3.80;2.20;;;5.70;99.90;;;;;;5095940;28;20223;-58
2023/04/03 04:37:54;;;;;;;3.23;1.70;;;5.80;99.90;;;;;;5095026;28;20228;-58
2023/04/03 04:40:21;;;;;;;2.90;1.90;;;5.70;99.90;;;;;;5094520;28;20566;-58
2023/04/03 04:42:49;;;;;;;1.93;1.60;;;5.80;99.90;;;;;;5095670;28;20734;-59
2023/04/03 04:45:16;;;;;;;3.17;1.73;;;5.80;99.90;;;;;;5095505;28;20575;-57
2023/04/03 04:47:43;;;;;;;2.37;2.03;;;5.80;99.90;;;;;;5095217;28;20228;-57
2023/04/03 04:50:11;;;;;;;2.63;1.97;;;5.70;99.90;;;;;;5095480;28;20207;-57
2023/04/03 04:52:41;;;;;;;3.33;2.20;;;5.60;99.90;;;;;;5095264;28;20545;-57
2023/04/03 04:55:08;;;;;;;3.73;2.30;;;5.50;99.90;;;;;;5098019;28;20208;-58
2023/04/03 04:57:36;;;;;;;3.90;2.10;;;5.40;99.90;;;;;;5095404;28;20228;-58
2023/04/03 05:00:05;;;;;;;2.53;1.80;;;5.40;99.90;;;;;;5094507;28;20291;-58
2023/04/03 05:02:32;;;;;;;4.00;2.20;;;5.50;99.90;;;;;;5094949;28;20295;-59
2023/04/03 05:04:59;;;;;;;3.40;2.30;;;5.50;99.90;;;;;;5094824;28;20210;-59
2023/04/03 05:07:26;;;;;;;2.90;1.90;;;5.40;99.90;;;;;;5094514;28;20254;-58
2023/04/03 05:09:52;;;;;;;2.23;1.90;;;5.30;99.90;;;;;;5094382;28;20208;-58
2023/04/03 05:12:19;;;;;;;3.77;2.50;;;5.20;99.90;;;;;;5094727;28;20713;-58
2023/04/03 05:14:46;;;;;;;6.03;2.30;;;5.10;99.90;;;;;;5094066;28;20208;-58
2023/04/03 05:17:14;;;;;;;2.77;1.90;;;5.00;99.90;;;;;;5094047;28;20659;-58
2023/04/03 05:19:41;;;;;;;3.20;2.03;;;4.90;99.90;;;;;;5095637;28;20212;-58
2023/04/03 05:22:08;;;;;;;2.27;2.07;;;4.70;99.90;;;;;;5094517;28;20203;-58
2023/04/03 05:24:35;;;;;;;2.87;2.20;;;4.70;99.90;;;;;;5094605;28;20664;-58
2023/04/03 05:27:02;;;;;;;2.30;1.97;;;4.70;99.90;;;;;;5096331;28;20232;-58
2023/04/03 05:29:29;;;;;;;3.20;2.00;;;4.70;99.90;;;;;;5097233;28;20204;-58
2023/04/03 05:31:56;;;;;;;5.10;2.00;;;4.70;99.90;;;;;;5096474;28;20208;-56
2023/04/03 05:34:24;;;;;;;3.33;2.10;;;4.70;99.90;;;;;;5094969;28;20229;-56
2023/04/03 05:36:51;;;;;;;2.63;2.00;;;4.80;99.90;;;;;;5095278;28;20512;-56
2023/04/03 05:39:18;;;;;;;3.37;2.10;;;4.80;99.90;;;;;;5093732;28;20204;-56
2023/04/03 05:41:44;;;;;;;3.53;2.03;;;4.90;99.90;;;;;;5093262;28;20211;-56
2023/04/03 05:44:11;;;;;;;2.40;2.10;;;5.00;99.90;;;;;;5093681;28;20215;-56
2023/04/03 05:46:38;;;;;;;4.17;1.97;;;5.10;99.90;;;;;;5093536;28;20273;-56
2023/04/03 05:49:05;;;;;;;4.00;2.43;;;5.10;99.90;;;;;;5093625;28;20243;-56
2023/04/03 05:51:36;;;;;;;3.87;2.23;;;5.20;99.90;;;;;;5092542;28;20196;-57
2023/04/03 05:54:10;;;;;;;2.20;1.90;;;5.30;99.90;;;;;;5093862;28;20200;-57
2023/04/03 05:56:37;;;;;;;2.70;1.90;;;5.30;99.90;;;;;;5093588;28;20219;-57
2023/04/03 05:59:04;;;;;;;2.67;1.60;;;5.30;99.90;;;;;;5093710;28;20665;-58
2023/04/03 06:01:30;;;;;;;3.03;2.13;;;5.40;99.90;;;;;;5093105;28;20689;-57
2023/04/03 06:03:58;;;;;;;4.40;1.73;;;5.50;99.90;;;;;;5093471;28;20201;-57
2023/04/03 06:06:25;;;;;;;4.67;1.90;;;5.60;99.90;;;;;;5093356;28;20235;-57
2023/04/03 06:08:53;;;;;;;5.30;1.80;;;5.70;99.90;;;;;;5093436;28;20206;-57
2023/04/03 06:11:21;;;;;;;3.43;1.90;;;5.70;99.90;;;;;;5094101;28;20208;-58
2023/04/03 06:13:48;;;;;;;3.73;2.10;;;5.80;99.90;;;;;;5094631;28;20208;-58
2023/04/03 06:16:17;;;;;;;4.37;2.20;;;5.90;99.90;;;;;;5093382;28;20211;-60
2023/04/03 06:18:44;;;;;;;3.17;1.70;;;6.00;99.90;;;;;;5092389;28;20204;-57
2023/04/03 06:21:11;;;;;;;3.07;1.97;;;6.00;99.90;;;;;;5093282;28;20303;-58
2023/04/03 06:23:37;;;;;;;4.10;2.00;;;6.20;99.90;;;;;;5093278;28;20291;-57
2023/04/03 06:26:06;;;;;;;4.10;1.90;;;6.30;99.90;;;;;;5092955;28;20228;-55
2023/04/03 06:28:34;;;;;;;2.97;1.80;;;6.40;99.90;;;;;;5092641;28;20228;-57
2023/04/03 06:31:00;;;;;;;2.23;1.90;;;6.50;99.90;;;;;;5092161;28;20303;-55
2023/04/03 06:33:27;;;;;;;3.07;2.13;;;6.50;99.90;;;;;;5092245;28;20204;-56
2023/04/03 06:35:58;;;;;;;3.97;2.13;;;6.40;99.90;;;;;;5080314;28;20216;-59
2023/04/03 06:38:24;;;;;;;5.03;2.17;;;6.40;99.90;;;;;;5080383;28;20225;-59
2023/04/03 06:40:52;;;;;;;3.13;1.97;;;6.40;99.90;;;;;;5079156;28;20205;-60
2023/04/03 06:43:21;;;;;;;3.50;2.10;;;6.40;99.90;;;;;;5070536;28;20627;-60
2023/04/03 06:45:48;;;;;;;4.43;2.07;;;6.40;99.90;;;;;;5070505;28;20610;-58
2023/04/03 06:48:15;;;;;;;4.10;2.30;;;6.60;99.90;;;;;;5070811;28;20224;-57
2023/04/03 06:50:42;;;;;;;3.73;1.90;;;6.60;99.90;;;;;;5071757;28;20620;-59
2023/04/03 06:53:08;;;;;;;3.73;1.93;;;6.60;99.90;;;;;;5072451;28;20561;-62
2023/04/03 06:55:35;;;;;;;4.77;2.00;;;6.70;99.90;;;;;;5071307;28;20696;-62
2023/04/03 06:58:03;;;;;;;2.90;1.70;;;6.80;99.90;;;;;;5070292;28;20221;-57
2023/04/03 07:00:31;;;;;;;7.10;2.00;;;6.90;99.90;;;;;;5070336;28;20205;-58
2023/04/03 07:02:58;;;;;;;7.13;2.10;;;7.10;99.90;;;;;;5071179;28;20204;-60
2023/04/03 07:05:25;;;;;;;3.23;1.87;;;7.20;99.90;;;;;;5074139;28;20220;-58
2023/04/03 07:07:53;;;;;;;2.97;1.83;;;7.40;99.90;;;;;;5074822;28;20665;-59
2023/04/03 07:10:19;;;;;;;2.93;1.60;;;7.50;99.90;;;;;;5073870;28;20223;-59
2023/04/03 07:12:46;;;;;;;3.33;1.93;;;7.70;99.90;;;;;;5074658;28;20209;-63
2023/04/03 07:15:14;;;;;;;3.80;1.60;;;7.90;99.90;;;;;;5074419;28;20205;-61
2023/04/03 07:17:42;;;;;;;4.37;2.07;;;8.20;99.90;;;;;;5074316;28;20775;-57
2023/04/03 07:20:10;;;;;;;3.47;1.60;;;8.60;99.90;;;;;;5073719;28;20719;-57
2023/04/03 07:22:37;;;;;;;3.80;2.10;;;9.10;99.90;;;;;;5074943;28;20208;-61
2023/04/03 07:25:06;;;;;;;2.33;1.60;;;10.20;99.90;;;;;;5073961;28;20673;-57
2023/04/03 07:27:34;;;;;;;2.87;1.50;;;10.90;99.80;;;;;;5073947;28;20768;-57
2023/04/03 07:30:00;;;;;;;3.17;1.57;;;11.50;98.90;;;;;;5073259;28;20237;-57
2023/04/03 07:32:27;;;;;;;5.00;2.03;;;12.30;98.00;;;;;;5073377;28;20209;-57
2023/04/03 07:34:55;;;;;;;4.63;1.70;;;12.80;96.80;;;;;;5073322;28;20216;-57
2023/04/03 07:37:22;;;;;;;2.97;1.90;;;13.20;96.30;;;;;;5073233;28;20228;-58
2023/04/03 07:39:48;;;;;;;3.17;1.70;;;13.80;94.70;;;;;;5073417;28;20208;-58
2023/04/03 07:42:16;;;;;;;2.60;1.83;;;13.80;94.40;;;;;;5072679;28;20232;-58
2023/04/03 07:44:43;;;;;;;3.63;1.63;;;13.50;94.50;;;;;;5073298;28;20205;-58
2023/04/03 07:47:09;;;;;;;2.80;1.60;;;13.50;94.30;;;;;;5072848;28;20719;-58
2023/04/03 07:49:39;;;;;;;5.00;1.70;;;13.70;93.90;;;;;;5073194;28;20478;-58
2023/04/03 07:52:08;;;;;;;3.80;1.93;;;13.70;93.40;;;;;;5072806;28;20209;-58
2023/04/03 07:54:35;;;;;;;3.30;1.63;;;13.10;93.70;;;;;;5073024;28;20209;-59
2023/04/03 07:57:02;;;;;;;3.43;2.00;;;12.20;94.40;;;;;;5088581;28;20240;-60
2023/04/03 07:59:29;;;;;;;3.17;1.93;;;11.10;95.60;;;;;;5093119;28;20212;-57
2023/04/03 08:01:56;;;;;;;2.67;1.53;;;10.00;96.90;;;;;;5093075;28;20208;-58
2023/04/03 08:04:23;;;;;;;3.70;2.00;;;9.40;98.40;;;;;;5093379;28;20208;-59
2023/04/03 08:06:50;;;;;;;3.87;2.37;;;9.30;99.00;;;;;;5092827;28;20242;-59
2023/04/03 08:09:19;;;;;;;4.17;2.13;;;9.80;98.90;;;;;;5086779;28;20238;-58
2023/04/03 08:11:46;;;;;;;3.20;2.20;;;9.90;98.50;;;;;;5072444;28;20205;-59
2023/04/03 08:14:16;;;;;;;3.27;1.80;;;9.40;98.90;;;;;;5079918;28;20211;-58
2023/04/03 08:16:43;;;;;;;4.43;1.70;;;9.10;99.50;;;;;;5093076;28;20307;-59
2023/04/03 08:19:10;;;;;;;3.77;1.80;;;8.90;99.90;;;;;;5092814;28;20198;-57
2023/04/03 08:21:37;;;;;;;4.37;1.83;;;8.80;99.90;;;;;;5090717;28;20287;-59
2023/04/03 08:24:05;;;;;;;4.30;2.17;;;8.60;99.90;;;;;;5088501;28;20212;-64
2023/04/03 08:26:33;;;;;;;5.13;1.67;;;8.70;99.90;;;;;;5092766;28;20658;-59
2023/04/03 08:29:00;;;;;;;3.33;1.70;;;8.90;99.90;;;;;;5093381;28;20215;-59
2023/04/03 08:31:27;;;;;;;2.27;2.07;;;9.10;99.90;;;;;;5092847;28;20200;-59
2023/04/03 08:33:54;;;;;;;3.80;1.93;;;9.20;99.80;;;;;;5092811;28;20281;-59
2023/04/03 08:36:22;;;;;;;3.37;2.07;;;9.40;99.80;;;;;;5092406;28;20200;-58
2023/04/03 08:38:50;;;;;;;4.50;1.97;;;9.70;99.40;;;;;;5092641;28;20684;-58
2023/04/03 08:41:30;;;;;;;3.43;1.90;;;9.70;99.70;;;;;;5092785;28;20204;-58
2023/04/03 08:44:16;;;;;;;5.13;1.90;;;9.80;99.40;;;;;;5092869;28;20205;-58
2023/04/03 08:46:53;;;;;;;2.70;1.80;;;9.70;99.40;;;;;;5093102;28;20234;-58
2023/04/03 08:49:27;;;;;;;6.57;1.80;;;9.60;98.90;;;;;;5092649;28;20211;-58
2023/04/03 08:51:55;;;;;;;5.63;2.50;;;9.40;99.10;;;;;;5092670;28;20204;-58
2023/04/03 08:54:28;;;;;;;3.87;1.70;;;9.20;98.90;;;;;;5092947;28;20212;-58
2023/04/03 08:56:56;;;;;;;3.57;1.70;;;8.80;99.10;;;;;;5093192;28;20220;-57
2023/04/03 08:59:30;;;;;;;3.83;1.70;;;8.60;99.60;;;;;;5091939;28;20261;-58
2023/04/03 09:02:01;;;;;;;3.00;1.90;;;8.80;99.90;;;;;;5092500;28;20204;-59
2023/04/03 09:04:32;;;;;;;2.47;1.60;;;9.20;99.70;;;;;;5092411;28;20222;-58
2023/04/03 09:07:05;;;;;;;2.40;1.53;;;9.50;98.80;;;;;;5092187;28;20263;-58
2023/04/03 09:09:34;;;;;;;3.30;1.87;;;9.60;98.60;;;;;;5092956;28;20239;-58
2023/04/03 09:12:11;;;;;;;2.77;1.57;;;9.60;98.80;;;;;;5091504;28;20235;-59
2023/04/03 09:14:43;;;;;;;3.27;1.70;;;9.70;98.50;;;;;;5091668;28;20672;-59
2023/04/03 09:17:20;;;;;;;5.67;1.90;;;9.80;98.20;;;;;;5091855;28;20224;-59
2023/04/03 09:19:55;;;;;;;4.47;2.37;;;9.60;98.40;;;;;;5091773;28;20279;-59
2023/04/03 09:22:26;;;;;;;3.90;2.00;;;9.50;98.30;;;;;;5091643;28;20277;-58
2023/04/03 09:25:00;;;;;;;4.47;2.17;;;9.50;98.30;;;;;;5092012;28;20563;-58
2023/04/03 09:27:28;;;;;;;3.57;1.80;;;9.30;98.50;;;;;;5090822;28;20227;-58
2023/04/03 09:29:57;;;;;;;4.23;1.90;;;9.20;99.20;;;;;;5091513;28;20235;-58
2023/04/03 09:32:28;;;;;;;3.43;1.90;;;9.30;98.70;;;;;;5091281;28;20196;-58
2023/04/03 09:34:58;;;;;;;2.27;1.50;;;9.40;99.60;;;;;;5091321;28;20566;-60
2023/04/03 09:37:40;;;;;;;5.87;1.83;;;9.60;98.80;;;;;;5091313;28;20224;-58
2023/04/03 09:40:29;;;;;;;4.27;1.77;;;9.70;98.80;;;;;;5091435;28;20210;-58
2023/04/03 09:42:58;;;;;;;2.57;1.63;;;9.90;98.50;;;;;;5091641;28;20561;-58
2023/04/03 09:45:29;;;;;;;2.60;1.80;;;9.90;98.20;;;;;;5091319;28;20213;-58
2023/04/03 09:48:08;;;;;;;4.13;2.10;;;9.70;98.30;;;;;;5091659;28;20235;-59
2023/04/03 09:50:35;;;;;;;3.33;1.63;;;9.70;98.00;;;;;;5091635;28;20215;-58
2023/04/03 09:53:07;;;;;;;3.00;1.93;;;9.50;97.90;;;;;;5091568;28;20212;-58
2023/04/03 09:55:44;;;;;;;3.53;1.90;;;9.50;98.10;;;;;;5091376;28;20214;-58
2023/04/03 09:58:27;;;;;;;4.00;2.50;;;9.60;98.20;;;;;;5092107;28;20230;-58
2023/04/03 10:01:00;;;;;;;6.80;3.73;;;9.70;98.10;;;;;;5091190;28;20204;-58
2023/04/03 10:03:30;;;;;;;5.57;1.90;;;9.90;97.70;;;;;;5091893;28;20212;-59
2023/04/03 10:05:58;;;;;;;3.67;1.77;;;10.10;97.60;;;;;;5091305;28;20212;-59
2023/04/03 10:08:29;;;;;;;3.70;1.60;;;9.90;97.60;;;;;;5091055;28;20227;-59
2023/04/03 10:11:14;;;;;;;2.73;1.63;;;9.60;97.50;;;;;;5091398;28;20210;-58
2023/04/03 10:13:56;;;;;;;3.40;1.70;;;9.40;97.60;;;;;;5090875;28;20222;-58
2023/04/03 10:16:29;;;;;;;2.60;1.50;;;9.30;97.00;;;;;;5091457;28;20250;-58
2023/04/03 10:19:14;;;;;;;2.83;1.67;;;9.20;97.00;;;;;;5091292;28;20687;-59
2023/04/03 10:21:46;;;;;;;3.87;1.80;;;9.10;97.10;;;;;;5091090;28;20298;-58
2023/04/03 10:24:20;;;;;;;2.13;1.43;;;9.10;96.60;;;;;;5091145;28;20219;-58
2023/04/03 10:26:57;;;;;;;3.33;1.50;;;9.20;96.30;;;;;;5091269;28;20231;-58
2023/04/03 10:29:35;;;;;;;3.97;1.40;;;9.30;96.20;;;;;;5091439;28;20208;-58
2023/04/03 10:32:22;;;;;;;3.83;1.33;;;9.40;95.20;;;;;;5091577;28;20211;-58
2023/04/03 10:34:55;;;;;;;3.03;1.40;;;9.60;94.40;;;;;;5091373;28;20238;-58
2023/04/03 10:37:28;;;;;;;1.93;1.30;;;9.60;94.30;;;;;;5090751;28;20252;-57
2023/04/03 10:39:59;;;;;;;1.93;1.30;;;9.60;94.30;;;;;;5095614;28;20204;-58
2023/04/03 10:42:34;;;;;;;4.73;2.47;;;9.50;93.70;;;;;;5095276;28;20215;-58
2023/04/03 10:45:15;;;;;;;4.27;1.63;;;9.30;93.60;;;;;;5094652;28;20335;-58
2023/04/03 10:47:59;;;;;;;2.33;0.90;;;9.10;93.50;;;;;;5092009;28;20626;-58
2023/04/03 10:50:46;;;;;;;3.27;1.50;;;9.10;94.50;;;;;;5094637;28;20223;-59
2023/04/03 10:53:23;;;;;;;2.30;1.50;;;9.30;95.90;;;;;;5095454;28;20204;-59
2023/04/03 10:55:56;;;;;;;2.90;1.40;;;9.20;96.30;;;;;;5095462;28;20215;-58
2023/04/03 10:58:30;;;;;;;4.33;1.97;;;9.00;96.40;;;;;;5094463;28;20228;-58
2023/04/03 11:01:01;;;;;;;2.00;1.40;;;9.00;96.60;;;;;;5094624;28;20579;-59
2023/04/03 11:03:33;;;;;;;2.57;1.60;;;9.00;96.80;;;;;;5094498;28;20562;-59
2023/04/03 11:06:03;;;;;;;4.67;2.07;;;8.90;96.90;;;;;;5094424;28;20212;-59
2023/04/03 11:08:35;;;;;;;2.87;1.60;;;8.90;97.10;;;;;;5094318;28;20225;-59
2023/04/03 11:11:07;;;;;;;3.07;1.90;;;8.90;96.60;;;;;;5094898;28;20212;-57
2023/04/03 11:13:38;;;;;;;3.63;2.40;;;8.90;96.80;;;;;;5094385;28;20215;-57
2023/04/03 11:16:06;;;;;;;2.80;1.57;;;9.10;96.90;;;;;;5094489;28;20204;-58
2023/04/03 11:18:40;;;;;;;2.73;1.70;;;9.40;97.00;;;;;;5094136;28;20228;-58
2023/04/03 11:21:13;;;;;;;3.00;1.50;;;9.70;95.90;;;;;;5093617;28;20230;-59
2023/04/03 11:23:41;;;;;;;3.53;1.40;;;9.80;94.70;;;;;;5094152;28;20295;-59
2023/04/03 11:26:14;;;;;;;1.97;1.40;;;9.80;94.20;;;;;;5093734;28;20660;-60
2023/04/03 11:28:42;;;;;;;3.67;1.80;;;10.00;94.10;;;;;;5093806;28;20242;-59
2023/04/03 11:31:20;;;;;;;4.33;1.70;;;10.00;94.00;;;;;;5093589;28;20208;-59
2023/04/03 11:33:59;;;;;;;2.37;1.60;;;10.00;94.10;;;;;;5093518;28;20211;-59
2023/04/03 11:36:30;;;;;;;3.83;1.50;;;10.00;95.20;;;;;;5093787;28;20204;-59
2023/04/03 11:39:01;;;;;;;2.77;1.47;;;9.70;95.50;;;;;;5093378;28;20660;-59
2023/04/03 11:41:30;;;;;;;4.07;1.47;;;9.70;95.80;;;;;;5093544;28;20300;-59
2023/04/03 11:43:59;;;;;;;3.10;1.50;;;9.70;95.20;;;;;;5093401;28;20321;-60
2023/04/03 11:46:51;;;;;;;1.60;1.30;;;9.80;95.30;;;;;;5093473;28;20214;-59
2023/04/03 11:49:51;;;;;;;2.10;1.30;;;10.10;94.60;;;;;;5093107;28;20263;-60
2023/04/03 11:52:51;;;;;;;2.40;1.47;;;10.50;94.00;;;;;;5093624;28;20226;-60
2023/04/03 11:55:45;;;;;;;1.90;1.50;;;10.50;92.60;;;;;;5093677;28;20295;-58
2023/04/03 11:58:15;;;;;;;3.70;1.53;;;10.50;91.80;;;;;;5083416;28;20220;-59
2023/04/03 12:00:58;;;;;;;2.90;1.60;;;10.30;91.70;;;;;;5093215;28;20696;-58
2023/04/03 12:04:06;;;;;;;2.70;1.50;;;10.20;92.00;;;;;;5093307;28;20196;-60
2023/04/03 12:07:02;;;;;;;2.43;1.40;;;10.20;92.20;;;;;;5093765;28;20698;-59
2023/04/03 12:09:33;;;;;;;2.73;1.37;;;10.10;92.20;;;;;;5093061;28;20231;-59
2023/04/03 12:12:24;;;;;;;4.83;1.70;;;10.10;92.00;;;;;;5093144;28;20211;-59
2023/04/03 12:14:52;;;;;;;3.50;1.50;;;10.00;92.40;;;;;;5092956;28;20207;-58
2023/04/03 12:17:25;;;;;;;2.60;1.53;;;9.90;92.20;;;;;;5093026;28;20239;-59
2023/04/03 12:19:51;;;;;;;2.87;1.70;;;9.80;92.80;;;;;;5093583;28;20637;-59
2023/04/03 12:22:20;;;;;;;2.30;1.70;;;9.80;93.00;;;;;;5092884;28;20563;-59
2023/04/03 12:24:49;;;;;;;1.93;1.50;;;9.80;93.10;;;;;;5093281;28;20676;-59
2023/04/03 12:27:39;;;;;;;3.40;1.90;;;9.80;93.10;;;;;;5093208;28;20236;-60
2023/04/03 12:30:22;;;;;;;2.43;1.50;;;9.90;91.80;;;;;;5092835;28;20212;-60
2023/04/03 12:33:05;;;;;;;4.57;2.00;;;9.90;91.50;;;;;;5093029;28;20691;-60
2023/04/03 12:35:37;;;;;;;2.97;1.60;;;9.90;91.10;;;;;;5093245;28;20208;-59
2023/04/03 12:38:38;;;;;;;4.30;1.67;;;10.10;90.40;;;;;;5092804;28;20261;-59
2023/04/03 12:41:22;;;;;;;3.53;1.97;;;10.30;90.70;;;;;;5092866;28;20208;-60
2023/04/03 12:44:04;;;;;;;4.00;2.20;;;10.40;91.20;;;;;;5092945;28;20215;-59
2023/04/03 12:46:39;;;;;;;3.93;1.63;;;10.30;91.40;;;;;;5092881;28;20208;-60
2023/04/03 12:49:19;;;;;;;3.60;1.70;;;10.20;90.80;;;;;;5092680;28;20219;-60
2023/04/03 12:51:48;;;;;;;3.07;1.53;;;10.30;90.30;;;;;;5092653;28;20211;-58
2023/04/03 12:54:17;;;;;;;2.30;1.43;;;10.50;91.10;;;;;;5092759;28;20204;-59
2023/04/03 12:56:44;;;;;;;2.37;1.57;;;10.70;91.10;;;;;;5092130;28;20231;-60
2023/04/03 12:59:19;;;;;;;4.03;1.80;;;10.60;90.10;;;;;;5091890;28;20406;-60
2023/04/03 13:01:54;;;;;;;1.53;1.10;;;10.50;90.40;;;;;;5091610;28;20660;-61
2023/04/03 13:04:21;;;;;;;4.97;1.63;;;10.50;85.80;;;;;;5091809;28;20257;-60
2023/04/03 13:06:48;;;;;;;3.23;1.50;;;10.40;87.70;;;;;;5091784;28;20236;-59
2023/04/03 13:09:22;;;;;;;3.10;1.50;;;10.40;89.70;;;;;;5091962;28;20216;-58
2023/04/03 13:11:51;;;;;;;2.03;1.23;;;10.60;89.30;;;;;;5091853;28;20224;-60